Weather reports worldwide

Advertisment
Great Dun Fell, United Kingdom (3227): temperature & dewpoint: 19.09.2018 11:00:00 - 25.09.2018 11:00:00 (BST)Great Dun Fell, United Kingdom (3227): wind speed & gusts: 19.09.2018 11:00:00 - 25.09.2018 11:00:00 (BST)Great Dun Fell, United Kingdom (3227): wind direction: 19.09.2018 11:00:00 - 25.09.2018 11:00:00 (BST)
Date & Time tt [°C] td [°C] ff [km/h] ff [kn] fx [km/h] fx [kn] dd
25.09.2018 11:00:00 - - - - - - -
25.09.2018 10:00:00 2,4 2,4 63 34 68 37 SW
25.09.2018 09:00:00 1,8 1,8 52 28 68 37 SW
25.09.2018 08:00:00 2,7 2,7 54 29 63 34 SW
25.09.2018 07:00:00 2,8 2,8 42 23 50 27 SW
25.09.2018 06:00:00 3,4 3,4 41 22 46 25 SW
25.09.2018 05:00:00 3,4 3,4 37 20 - - SW
25.09.2018 04:00:00 3,5 3,5 26 14 - - SW
25.09.2018 03:00:00 3,6 3,6 21 11 - - SW
25.09.2018 02:00:00 3,6 3,6 22 12 - - SSW
25.09.2018 01:00:00 4,0 4,0 16 9 - - SW
25.09.2018 00:00:00 4,2 4,2 21 11 - - W
24.09.2018 23:00:00 4,2 4,2 24 13 - - W
24.09.2018 22:00:00 4,4 4,4 22 12 - - W
24.09.2018 21:00:00 4,5 4,5 22 12 - - W
24.09.2018 20:00:00 4,6 4,6 22 12 - - W
24.09.2018 19:00:00 4,7 4,7 22 12 - - W
24.09.2018 18:00:00 4,7 4,5 26 14 46 25 W
24.09.2018 17:00:00 4,7 4,0 42 23 52 28 WNW
24.09.2018 16:00:00 5,5 3,0 41 22 52 28 W
24.09.2018 15:00:00 5,5 2,9 37 20 52 28 WNW
24.09.2018 14:00:00 5,0 2,7 35 19 - - W
24.09.2018 13:00:00 4,9 1,8 37 20 59 32 W
24.09.2018 12:00:00 4,3 1,9 42 23 54 29 W
24.09.2018 11:00:00 3,3 2,7 31 17 - - W
24.09.2018 10:00:00 2,4 1,8 28 15 - - WNW
24.09.2018 09:00:00 1,6 1,6 24 13 - - W
24.09.2018 08:00:00 1,4 0,5 28 15 - - WNW
24.09.2018 07:00:00 1,4 1,4 31 17 - - WNW
24.09.2018 06:00:00 1,1 1,1 31 17 - - WNW
24.09.2018 05:00:00 1,3 0,2 34 18 46 25 NW
24.09.2018 04:00:00 1,5 0,3 39 21 48 26 NW
24.09.2018 03:00:00 1,1 1,1 39 21 46 25 NNW
24.09.2018 02:00:00 1,3 1,3 39 21 46 25 NNW
24.09.2018 01:00:00 1,5 1,3 31 17 46 25 NW
24.09.2018 00:00:00 1,6 1,6 34 18 - - NW
23.09.2018 23:00:00 1,9 1,9 34 18 52 28 NW
23.09.2018 22:00:00 2,6 2,6 41 22 55 30 NW
23.09.2018 21:00:00 2,9 2,8 42 23 52 28 NW
23.09.2018 20:00:00 3,9 3,1 37 20 46 25 NW
23.09.2018 19:00:00 4,9 2,6 34 18 - - NW
23.09.2018 18:00:00 5,6 -0,8 28 15 50 27 NW
23.09.2018 17:00:00 5,5 1,6 26 14 - - NW
23.09.2018 16:00:00 6,0 1,1 29 16 55 30 NW
23.09.2018 15:00:00 4,1 1,2 28 15 - - NW
23.09.2018 14:00:00 4,3 -0,5 24 13 - - NNW
23.09.2018 13:00:00 3,1 0,4 22 12 - - NW
23.09.2018 12:00:00 3,0 -3,2 22 12 - - NNW
23.09.2018 11:00:00 3,2 -1,3 22 12 - - NNW
23.09.2018 10:00:00 2,3 -1,1 22 12 - - NNW
23.09.2018 09:00:00 1,6 -0,1 26 14 - - NNW
23.09.2018 08:00:00 1,5 0,5 24 13 - - NNW
23.09.2018 07:00:00 1,9 0,5 26 14 - - NNW
23.09.2018 06:00:00 1,9 0,5 24 13 - - NNW
23.09.2018 05:00:00 1,9 0,9 28 15 - - NNW
23.09.2018 04:00:00 1,3 1,2 15 8 - - WNW
23.09.2018 03:00:00 2,2 0,5 22 12 - - NW
23.09.2018 02:00:00 2,5 0,2 29 16 - - NNW
23.09.2018 01:00:00 2,7 1,3 28 15 - - NNW
23.09.2018 00:00:00 2,8 1,9 28 15 - - NNW
22.09.2018 23:00:00 2,8 1,7 24 13 - - NNW
22.09.2018 22:00:00 3,1 2,9 24 13 - - WNW
22.09.2018 21:00:00 3,3 3,3 22 12 - - WNW
22.09.2018 20:00:00 3,3 3,3 21 11 - - WNW
22.09.2018 19:00:00 3,3 2,7 24 13 - - WNW
22.09.2018 18:00:00 3,4 3,1 26 14 - - WNW
22.09.2018 17:00:00 4,2 3,7 28 15 - - W
22.09.2018 16:00:00 4,0 2,5 31 17 - - W
22.09.2018 15:00:00 4,1 3,4 42 23 50 27 W
22.09.2018 14:00:00 3,4 3,4 37 20 48 26 W
22.09.2018 13:00:00 3,4 3,4 42 23 48 26 W
22.09.2018 12:00:00 3,3 3,3 44 24 61 33 W
22.09.2018 11:00:00 2,9 2,9 52 28 65 35 W
22.09.2018 10:00:00 3,3 3,3 48 26 61 33 W
22.09.2018 09:00:00 2,6 2,6 44 24 67 36 W
22.09.2018 08:00:00 2,4 2,4 42 23 54 29 W
22.09.2018 07:00:00 2,2 2,2 48 26 70 38 W
22.09.2018 06:00:00 2,1 2,1 55 30 68 37 W
22.09.2018 05:00:00 2,3 2,3 59 32 70 38 W
22.09.2018 04:00:00 2,0 2,0 52 28 72 39 W
22.09.2018 03:00:00 2,4 2,4 61 33 74 40 W
22.09.2018 02:00:00 2,4 2,4 57 31 72 39 W
22.09.2018 01:00:00 3,0 3,0 63 34 76 41 W
22.09.2018 00:00:00 2,7 2,7 59 32 85 46 W
21.09.2018 23:00:00 3,8 3,8 63 34 80 43 W
21.09.2018 22:00:00 3,5 3,5 57 31 70 38 W
21.09.2018 21:00:00 3,5 3,5 54 29 65 35 W
21.09.2018 20:00:00 3,9 3,9 46 25 68 37 W
21.09.2018 19:00:00 4,4 4,4 52 28 74 40 W
21.09.2018 18:00:00 4,6 4,6 57 31 81 44 WNW
21.09.2018 17:00:00 4,2 4,2 65 35 85 46 WNW
21.09.2018 16:00:00 4,6 4,6 63 34 87 47 W
21.09.2018 15:00:00 3,5 3,5 65 35 85 46 WNW
21.09.2018 14:00:00 3,9 3,9 50 27 74 40 W
21.09.2018 13:00:00 3,6 3,6 61 33 85 46 WSW
21.09.2018 12:00:00 3,5 3,5 70 38 94 51 W
21.09.2018 11:00:00 3,3 3,3 74 40 93 50 W
21.09.2018 10:00:00 2,6 2,6 74 40 98 53 W
21.09.2018 09:00:00 2,7 2,7 65 35 85 46 W
21.09.2018 08:00:00 2,1 2,1 65 35 81 44 W
21.09.2018 07:00:00 1,7 1,7 55 30 80 43 W
21.09.2018 06:00:00 1,1 1,1 65 35 87 47 W
21.09.2018 05:00:00 0,1 0,1 67 36 87 47 WNW
21.09.2018 04:00:00 0,0 0,0 54 29 93 50 NW
21.09.2018 03:00:00 -0,1 -0,1 74 40 93 50 NNW
21.09.2018 02:00:00 3,7 3,7 44 24 59 32 NE
21.09.2018 01:00:00 3,9 3,9 42 23 50 27 ENE
21.09.2018 00:00:00 3,8 3,8 39 21 55 30 ENE
20.09.2018 23:00:00 4,1 4,1 50 27 59 32 ENE
20.09.2018 22:00:00 4,2 4,2 42 23 50 27 ENE
20.09.2018 21:00:00 4,1 4,1 34 18 46 25 E
20.09.2018 20:00:00 3,4 3,4 35 19 - - E
20.09.2018 19:00:00 3,7 3,7 35 19 - - E
20.09.2018 18:00:00 3,7 3,7 26 14 - - E
20.09.2018 17:00:00 4,0 4,0 11 6 - - E
20.09.2018 16:00:00 5,1 5,0 22 12 - - SW
20.09.2018 15:00:00 5,3 4,1 34 18 - - SW
20.09.2018 14:00:00 5,7 3,3 39 21 54 29 WSW
20.09.2018 13:00:00 6,0 3,3 42 23 55 30 SW
20.09.2018 12:00:00 6,3 3,5 44 24 57 31 WSW
20.09.2018 11:00:00 5,0 3,8 42 23 63 34 WSW
20.09.2018 10:00:00 4,3 3,4 46 25 50 27 WSW
20.09.2018 09:00:00 3,6 3,6 37 20 50 27 WSW
20.09.2018 08:00:00 3,7 3,7 44 24 52 28 WSW
20.09.2018 07:00:00 3,6 3,6 42 23 59 32 WSW
20.09.2018 06:00:00 3,8 3,8 50 27 61 33 WSW
20.09.2018 05:00:00 4,2 3,8 52 28 63 34 WSW
20.09.2018 04:00:00 4,6 3,8 52 28 61 33 WSW
20.09.2018 03:00:00 4,6 3,3 52 28 65 35 WSW
20.09.2018 02:00:00 4,4 3,4 55 30 83 45 WSW
20.09.2018 01:00:00 4,8 3,4 65 35 85 46 WSW
20.09.2018 00:00:00 5,1 3,6 68 37 87 47 WSW
19.09.2018 23:00:00 4,8 3,9 67 36 89 48 WSW
19.09.2018 22:00:00 4,9 4,0 74 40 94 51 WSW
19.09.2018 21:00:00 5,3 3,4 74 40 96 52 WSW
19.09.2018 20:00:00 5,1 4,2 81 44 94 51 WSW
19.09.2018 19:00:00 6,0 3,4 80 43 106 57 WSW
19.09.2018 18:00:00 5,5 3,7 94 51 120 65 WSW
19.09.2018 17:00:00 6,4 5,8 93 50 133 72 WSW
19.09.2018 16:00:00 7,0 5,9 102 55 128 69 WSW
19.09.2018 15:00:00 7,2 7,1 96 52 146 79 WSW
19.09.2018 14:00:00 8,4 8,4 124 67 169 91 WSW
19.09.2018 13:00:00 9,4 9,4 131 71 170 92 SW
19.09.2018 12:00:00 9,4 9,4 128 69 154 83 SW
19.09.2018 11:00:00 9,4 9,4 98 53 120 65 SW

tt = temperature
td = dewpoint
ff = wind speed
fx = gusts
dd = wind direction

Next stations